sensor_id;sensor_type;location;lat;lon;timestamp;P1;durP1;ratioP1;P2;durP2;ratioP2
4634;SDS011;2330;48.158;11.816;2023-03-03T00:01:40;30.48;;;26.48;;
4634;SDS011;2330;48.158;11.816;2023-03-03T00:04:07;29.23;;;25.92;;
4634;SDS011;2330;48.158;11.816;2023-03-03T00:06:34;29.02;;;25.90;;
4634;SDS011;2330;48.158;11.816;2023-03-03T00:09:01;28.20;;;24.95;;
4634;SDS011;2330;48.158;11.816;2023-03-03T00:11:28;28.23;;;25.13;;
4634;SDS011;2330;48.158;11.816;2023-03-03T00:13:55;28.13;;;24.45;;
4634;SDS011;2330;48.158;11.816;2023-03-03T00:16:30;27.52;;;23.95;;
4634;SDS011;2330;48.158;11.816;2023-03-03T00:19:00;27.60;;;24.75;;
4634;SDS011;2330;48.158;11.816;2023-03-03T00:24:10;28.60;;;24.02;;
4634;SDS011;2330;48.158;11.816;2023-03-03T00:26:44;29.33;;;24.90;;
4634;SDS011;2330;48.158;11.816;2023-03-03T00:29:35;29.33;;;26.25;;
4634;SDS011;2330;48.158;11.816;2023-03-03T00:34:42;27.90;;;24.77;;
4634;SDS011;2330;48.158;11.816;2023-03-03T00:37:31;30.00;;;26.17;;
4634;SDS011;2330;48.158;11.816;2023-03-03T00:39:58;29.27;;;25.95;;
4634;SDS011;2330;48.158;11.816;2023-03-03T00:42:34;26.05;;;23.23;;
4634;SDS011;2330;48.158;11.816;2023-03-03T00:45:04;29.10;;;24.60;;
4634;SDS011;2330;48.158;11.816;2023-03-03T00:47:43;25.77;;;22.70;;
4634;SDS011;2330;48.158;11.816;2023-03-03T00:52:38;27.20;;;23.73;;
4634;SDS011;2330;48.158;11.816;2023-03-03T00:55:09;25.27;;;22.50;;
4634;SDS011;2330;48.158;11.816;2023-03-03T00:57:37;30.55;;;26.38;;
4634;SDS011;2330;48.158;11.816;2023-03-03T01:00:04;28.38;;;24.67;;
4634;SDS011;2330;48.158;11.816;2023-03-03T01:02:31;28.73;;;24.48;;
4634;SDS011;2330;48.158;11.816;2023-03-03T01:04:57;28.10;;;24.80;;
4634;SDS011;2330;48.158;11.816;2023-03-03T01:07:24;29.23;;;26.05;;
4634;SDS011;2330;48.158;11.816;2023-03-03T01:09:51;27.50;;;24.50;;
4634;SDS011;2330;48.158;11.816;2023-03-03T01:12:18;32.22;;;27.48;;
4634;SDS011;2330;48.158;11.816;2023-03-03T01:14:44;31.35;;;27.45;;
4634;SDS011;2330;48.158;11.816;2023-03-03T01:17:11;29.25;;;26.05;;
4634;SDS011;2330;48.158;11.816;2023-03-03T01:19:38;28.45;;;25.40;;
4634;SDS011;2330;48.158;11.816;2023-03-03T01:22:04;28.17;;;25.08;;
4634;SDS011;2330;48.158;11.816;2023-03-03T01:24:31;29.00;;;25.90;;
4634;SDS011;2330;48.158;11.816;2023-03-03T01:26:58;31.65;;;28.25;;
4634;SDS011;2330;48.158;11.816;2023-03-03T01:29:25;29.27;;;25.75;;
4634;SDS011;2330;48.158;11.816;2023-03-03T01:31:52;29.42;;;26.33;;
4634;SDS011;2330;48.158;11.816;2023-03-03T01:34:19;27.77;;;24.77;;
4634;SDS011;2330;48.158;11.816;2023-03-03T01:36:46;28.33;;;24.30;;
4634;SDS011;2330;48.158;11.816;2023-03-03T01:39:13;25.98;;;23.17;;
4634;SDS011;2330;48.158;11.816;2023-03-03T01:41:40;28.45;;;25.25;;
4634;SDS011;2330;48.158;11.816;2023-03-03T01:44:10;27.08;;;24.17;;
4634;SDS011;2330;48.158;11.816;2023-03-03T01:46:43;26.40;;;23.60;;
4634;SDS011;2330;48.158;11.816;2023-03-03T01:49:28;25.92;;;23.20;;
4634;SDS011;2330;48.158;11.816;2023-03-03T01:52:01;26.85;;;23.98;;
4634;SDS011;2330;48.158;11.816;2023-03-03T01:54:37;27.17;;;24.38;;
4634;SDS011;2330;48.158;11.816;2023-03-03T01:57:12;27.60;;;24.27;;
4634;SDS011;2330;48.158;11.816;2023-03-03T01:59:45;27.58;;;24.27;;
4634;SDS011;2330;48.158;11.816;2023-03-03T02:02:14;27.20;;;24.30;;
4634;SDS011;2330;48.158;11.816;2023-03-03T02:04:41;29.05;;;25.95;;
4634;SDS011;2330;48.158;11.816;2023-03-03T02:07:09;27.08;;;24.23;;
4634;SDS011;2330;48.158;11.816;2023-03-03T02:12:32;26.77;;;23.90;;
4634;SDS011;2330;48.158;11.816;2023-03-03T02:15:15;27.23;;;24.25;;
4634;SDS011;2330;48.158;11.816;2023-03-03T02:17:43;27.08;;;24.17;;
4634;SDS011;2330;48.158;11.816;2023-03-03T02:23:05;28.25;;;24.50;;
4634;SDS011;2330;48.158;11.816;2023-03-03T02:25:45;32.85;;;27.25;;
4634;SDS011;2330;48.158;11.816;2023-03-03T02:28:28;29.98;;;26.55;;
4634;SDS011;2330;48.158;11.816;2023-03-03T02:30:57;28.75;;;25.50;;
4634;SDS011;2330;48.158;11.816;2023-03-03T02:33:25;29.02;;;25.92;;
4634;SDS011;2330;48.158;11.816;2023-03-03T02:35:53;28.88;;;25.73;;
4634;SDS011;2330;48.158;11.816;2023-03-03T02:38:31;26.65;;;23.83;;
4634;SDS011;2330;48.158;11.816;2023-03-03T02:41:28;28.15;;;25.10;;
4634;SDS011;2330;48.158;11.816;2023-03-03T02:44:07;27.15;;;24.25;;
4634;SDS011;2330;48.158;11.816;2023-03-03T02:46:40;27.25;;;24.23;;
4634;SDS011;2330;48.158;11.816;2023-03-03T02:49:10;27.27;;;24.40;;
4634;SDS011;2330;48.158;11.816;2023-03-03T02:51:39;25.92;;;22.65;;
4634;SDS011;2330;48.158;11.816;2023-03-03T02:54:08;24.45;;;21.92;;
4634;SDS011;2330;48.158;11.816;2023-03-03T02:56:35;27.80;;;23.98;;
4634;SDS011;2330;48.158;11.816;2023-03-03T02:59:03;28.95;;;25.85;;
4634;SDS011;2330;48.158;11.816;2023-03-03T03:01:30;27.65;;;24.83;;
4634;SDS011;2330;48.158;11.816;2023-03-03T03:04:24;26.02;;;22.60;;
4634;SDS011;2330;48.158;11.816;2023-03-03T03:06:51;26.67;;;23.85;;
4634;SDS011;2330;48.158;11.816;2023-03-03T03:09:19;25.88;;;23.17;;
4634;SDS011;2330;48.158;11.816;2023-03-03T03:11:48;28.10;;;24.90;;
4634;SDS011;2330;48.158;11.816;2023-03-03T03:14:14;27.45;;;24.40;;
4634;SDS011;2330;48.158;11.816;2023-03-03T03:16:41;26.60;;;23.80;;
4634;SDS011;2330;48.158;11.816;2023-03-03T03:19:08;26.83;;;23.48;;
4634;SDS011;2330;48.158;11.816;2023-03-03T03:21:35;26.63;;;23.73;;
4634;SDS011;2330;48.158;11.816;2023-03-03T03:24:01;27.25;;;24.35;;
4634;SDS011;2330;48.158;11.816;2023-03-03T03:26:28;27.15;;;24.33;;
4634;SDS011;2330;48.158;11.816;2023-03-03T03:28:55;27.60;;;24.50;;
4634;SDS011;2330;48.158;11.816;2023-03-03T03:31:22;25.92;;;22.70;;
4634;SDS011;2330;48.158;11.816;2023-03-03T03:33:48;27.13;;;23.25;;
4634;SDS011;2330;48.158;11.816;2023-03-03T03:36:16;32.08;;;25.20;;
4634;SDS011;2330;48.158;11.816;2023-03-03T03:38:42;25.55;;;22.75;;
4634;SDS011;2330;48.158;11.816;2023-03-03T03:41:10;28.42;;;25.33;;
4634;SDS011;2330;48.158;11.816;2023-03-03T03:43:37;28.35;;;24.55;;
4634;SDS011;2330;48.158;11.816;2023-03-03T03:46:04;24.73;;;22.33;;
4634;SDS011;2330;48.158;11.816;2023-03-03T03:48:31;26.45;;;23.70;;
4634;SDS011;2330;48.158;11.816;2023-03-03T03:50:58;25.70;;;22.90;;
4634;SDS011;2330;48.158;11.816;2023-03-03T03:53:25;25.00;;;22.45;;
4634;SDS011;2330;48.158;11.816;2023-03-03T03:55:52;24.88;;;22.08;;
4634;SDS011;2330;48.158;11.816;2023-03-03T03:58:18;24.92;;;22.35;;
4634;SDS011;2330;48.158;11.816;2023-03-03T04:00:45;25.80;;;23.13;;
4634;SDS011;2330;48.158;11.816;2023-03-03T04:03:12;28.58;;;25.48;;
4634;SDS011;2330;48.158;11.816;2023-03-03T04:05:40;25.70;;;22.90;;
4634;SDS011;2330;48.158;11.816;2023-03-03T04:08:07;26.88;;;24.05;;
4634;SDS011;2330;48.158;11.816;2023-03-03T04:10:34;27.20;;;24.30;;
4634;SDS011;2330;48.158;11.816;2023-03-03T04:13:01;27.73;;;24.70;;
4634;SDS011;2330;48.158;11.816;2023-03-03T04:15:28;26.88;;;24.08;;
4634;SDS011;2330;48.158;11.816;2023-03-03T04:17:55;26.95;;;24.05;;
4634;SDS011;2330;48.158;11.816;2023-03-03T04:20:22;27.40;;;24.50;;
4634;SDS011;2330;48.158;11.816;2023-03-03T04:22:49;27.70;;;24.02;;
4634;SDS011;2330;48.158;11.816;2023-03-03T04:25:16;26.42;;;23.73;;
4634;SDS011;2330;48.158;11.816;2023-03-03T04:27:43;26.75;;;24.05;;
4634;SDS011;2330;48.158;11.816;2023-03-03T04:30:11;28.75;;;24.83;;
4634;SDS011;2330;48.158;11.816;2023-03-03T04:32:39;26.73;;;23.88;;
4634;SDS011;2330;48.158;11.816;2023-03-03T04:35:06;25.48;;;22.83;;
4634;SDS011;2330;48.158;11.816;2023-03-03T04:37:34;25.85;;;23.05;;
4634;SDS011;2330;48.158;11.816;2023-03-03T04:40:03;27.40;;;24.70;;
4634;SDS011;2330;48.158;11.816;2023-03-03T04:42:30;24.58;;;21.98;;
4634;SDS011;2330;48.158;11.816;2023-03-03T04:44:57;29.80;;;23.10;;
4634;SDS011;2330;48.158;11.816;2023-03-03T04:47:24;25.13;;;22.60;;
4634;SDS011;2330;48.158;11.816;2023-03-03T04:49:51;23.45;;;20.92;;
4634;SDS011;2330;48.158;11.816;2023-03-03T04:52:18;23.85;;;21.30;;
4634;SDS011;2330;48.158;11.816;2023-03-03T04:54:45;26.80;;;24.08;;
4634;SDS011;2330;48.158;11.816;2023-03-03T04:57:11;24.92;;;22.23;;
4634;SDS011;2330;48.158;11.816;2023-03-03T04:59:38;26.60;;;23.77;;
4634;SDS011;2330;48.158;11.816;2023-03-03T05:02:05;25.67;;;23.00;;
4634;SDS011;2330;48.158;11.816;2023-03-03T05:04:32;24.90;;;22.33;;
4634;SDS011;2330;48.158;11.816;2023-03-03T05:06:59;25.17;;;22.52;;
4634;SDS011;2330;48.158;11.816;2023-03-03T05:09:26;24.77;;;22.15;;
4634;SDS011;2330;48.158;11.816;2023-03-03T05:11:53;24.00;;;21.50;;
4634;SDS011;2330;48.158;11.816;2023-03-03T05:14:20;26.42;;;23.63;;
4634;SDS011;2330;48.158;11.816;2023-03-03T05:16:47;24.05;;;21.65;;
4634;SDS011;2330;48.158;11.816;2023-03-03T05:19:14;24.70;;;22.20;;
4634;SDS011;2330;48.158;11.816;2023-03-03T05:21:41;24.52;;;21.92;;
4634;SDS011;2330;48.158;11.816;2023-03-03T05:24:09;23.52;;;21.08;;
4634;SDS011;2330;48.158;11.816;2023-03-03T05:26:37;24.50;;;22.10;;
4634;SDS011;2330;48.158;11.816;2023-03-03T05:29:05;26.33;;;23.63;;
4634;SDS011;2330;48.158;11.816;2023-03-03T05:31:33;24.17;;;21.70;;
4634;SDS011;2330;48.158;11.816;2023-03-03T05:34:00;25.23;;;22.52;;
4634;SDS011;2330;48.158;11.816;2023-03-03T05:36:27;26.35;;;23.52;;
4634;SDS011;2330;48.158;11.816;2023-03-03T05:38:54;25.63;;;22.95;;
4634;SDS011;2330;48.158;11.816;2023-03-03T05:41:20;23.63;;;21.20;;
4634;SDS011;2330;48.158;11.816;2023-03-03T05:43:47;25.20;;;22.50;;
4634;SDS011;2330;48.158;11.816;2023-03-03T05:46:14;27.10;;;24.20;;
4634;SDS011;2330;48.158;11.816;2023-03-03T05:48:41;27.60;;;24.63;;
4634;SDS011;2330;48.158;11.816;2023-03-03T05:51:08;27.40;;;24.45;;
4634;SDS011;2330;48.158;11.816;2023-03-03T05:53:35;26.20;;;23.50;;
4634;SDS011;2330;48.158;11.816;2023-03-03T05:56:02;24.17;;;21.77;;
4634;SDS011;2330;48.158;11.816;2023-03-03T05:58:29;24.75;;;22.15;;
4634;SDS011;2330;48.158;11.816;2023-03-03T06:00:56;26.75;;;24.08;;
4634;SDS011;2330;48.158;11.816;2023-03-03T06:03:22;26.05;;;23.50;;
4634;SDS011;2330;48.158;11.816;2023-03-03T06:05:49;28.90;;;24.52;;
4634;SDS011;2330;48.158;11.816;2023-03-03T06:08:16;27.92;;;25.02;;
4634;SDS011;2330;48.158;11.816;2023-03-03T06:10:43;26.70;;;23.25;;
4634;SDS011;2330;48.158;11.816;2023-03-03T06:13:09;29.95;;;26.90;;
4634;SDS011;2330;48.158;11.816;2023-03-03T06:15:36;27.25;;;24.35;;
4634;SDS011;2330;48.158;11.816;2023-03-03T06:18:03;25.98;;;23.38;;
4634;SDS011;2330;48.158;11.816;2023-03-03T06:20:30;28.48;;;25.42;;
4634;SDS011;2330;48.158;11.816;2023-03-03T06:22:58;31.33;;;24.90;;
4634;SDS011;2330;48.158;11.816;2023-03-03T06:25:25;27.73;;;24.92;;
4634;SDS011;2330;48.158;11.816;2023-03-03T06:27:57;29.73;;;24.85;;
4634;SDS011;2330;48.158;11.816;2023-03-03T06:30:27;33.33;;;29.08;;
4634;SDS011;2330;48.158;11.816;2023-03-03T06:32:55;33.28;;;28.33;;
4634;SDS011;2330;48.158;11.816;2023-03-03T06:35:22;28.60;;;25.60;;
4634;SDS011;2330;48.158;11.816;2023-03-03T06:37:49;28.38;;;25.38;;
4634;SDS011;2330;48.158;11.816;2023-03-03T06:40:16;29.23;;;26.15;;
4634;SDS011;2330;48.158;11.816;2023-03-03T06:42:43;29.35;;;25.42;;
4634;SDS011;2330;48.158;11.816;2023-03-03T06:45:10;25.38;;;22.58;;
4634;SDS011;2330;48.158;11.816;2023-03-03T06:47:37;28.52;;;25.15;;
4634;SDS011;2330;48.158;11.816;2023-03-03T06:50:05;27.95;;;25.10;;
4634;SDS011;2330;48.158;11.816;2023-03-03T06:52:32;32.03;;;27.70;;
4634;SDS011;2330;48.158;11.816;2023-03-03T06:55:00;30.70;;;27.50;;
4634;SDS011;2330;48.158;11.816;2023-03-03T06:57:35;31.55;;;28.00;;
4634;SDS011;2330;48.158;11.816;2023-03-03T07:00:16;31.27;;;27.98;;
4634;SDS011;2330;48.158;11.816;2023-03-03T07:02:52;31.95;;;27.08;;
4634;SDS011;2330;48.158;11.816;2023-03-03T07:05:27;29.30;;;25.35;;
4634;SDS011;2330;48.158;11.816;2023-03-03T07:07:55;30.60;;;27.38;;
4634;SDS011;2330;48.158;11.816;2023-03-03T07:10:26;38.90;;;30.83;;
4634;SDS011;2330;48.158;11.816;2023-03-03T07:12:56;30.25;;;26.70;;
4634;SDS011;2330;48.158;11.816;2023-03-03T07:15:35;33.42;;;29.92;;
4634;SDS011;2330;48.158;11.816;2023-03-03T07:18:01;29.95;;;26.75;;
4634;SDS011;2330;48.158;11.816;2023-03-03T07:20:37;37.65;;;31.15;;
4634;SDS011;2330;48.158;11.816;2023-03-03T07:23:22;38.75;;;31.45;;
4634;SDS011;2330;48.158;11.816;2023-03-03T07:25:51;42.10;;;31.92;;
4634;SDS011;2330;48.158;11.816;2023-03-03T07:28:20;31.75;;;28.42;;
4634;SDS011;2330;48.158;11.816;2023-03-03T07:30:52;35.13;;;31.33;;
4634;SDS011;2330;48.158;11.816;2023-03-03T07:33:27;37.22;;;32.30;;
4634;SDS011;2330;48.158;11.816;2023-03-03T07:35:59;36.55;;;30.98;;
4634;SDS011;2330;48.158;11.816;2023-03-03T07:41:14;44.03;;;35.10;;
4634;SDS011;2330;48.158;11.816;2023-03-03T07:43:50;39.50;;;35.22;;
4634;SDS011;2330;48.158;11.816;2023-03-03T07:46:33;47.28;;;39.33;;
4634;SDS011;2330;48.158;11.816;2023-03-03T07:49:22;43.80;;;37.63;;
4634;SDS011;2330;48.158;11.816;2023-03-03T07:51:55;43.78;;;37.72;;
4634;SDS011;2330;48.158;11.816;2023-03-03T07:59:40;42.25;;;36.90;;
4634;SDS011;2330;48.158;11.816;2023-03-03T08:02:34;46.72;;;39.47;;
4634;SDS011;2330;48.158;11.816;2023-03-03T08:05:20;45.28;;;38.50;;
4634;SDS011;2330;48.158;11.816;2023-03-03T08:07:51;46.03;;;38.33;;
4634;SDS011;2330;48.158;11.816;2023-03-03T08:10:27;48.45;;;38.65;;
4634;SDS011;2330;48.158;11.816;2023-03-03T08:13:00;42.85;;;38.25;;
4634;SDS011;2330;48.158;11.816;2023-03-03T08:15:36;41.00;;;36.17;;
4634;SDS011;2330;48.158;11.816;2023-03-03T08:18:07;41.97;;;36.92;;
4634;SDS011;2330;48.158;11.816;2023-03-03T08:20:51;43.22;;;37.08;;
4634;SDS011;2330;48.158;11.816;2023-03-03T08:23:20;39.97;;;35.22;;
4634;SDS011;2330;48.158;11.816;2023-03-03T08:25:48;41.70;;;35.22;;
4634;SDS011;2330;48.158;11.816;2023-03-03T08:28:16;38.67;;;34.70;;
4634;SDS011;2330;48.158;11.816;2023-03-03T08:30:44;43.28;;;35.53;;
4634;SDS011;2330;48.158;11.816;2023-03-03T08:33:12;39.08;;;34.90;;
4634;SDS011;2330;48.158;11.816;2023-03-03T08:35:40;38.85;;;34.58;;
4634;SDS011;2330;48.158;11.816;2023-03-03T08:38:07;38.85;;;34.70;;
4634;SDS011;2330;48.158;11.816;2023-03-03T08:40:34;39.50;;;35.25;;
4634;SDS011;2330;48.158;11.816;2023-03-03T08:43:01;38.97;;;34.85;;
4634;SDS011;2330;48.158;11.816;2023-03-03T08:45:28;39.75;;;35.58;;
4634;SDS011;2330;48.158;11.816;2023-03-03T08:47:55;49.38;;;38.15;;
4634;SDS011;2330;48.158;11.816;2023-03-03T08:50:22;44.78;;;37.25;;
4634;SDS011;2330;48.158;11.816;2023-03-03T08:52:49;43.55;;;37.03;;
4634;SDS011;2330;48.158;11.816;2023-03-03T08:55:16;44.03;;;37.83;;
4634;SDS011;2330;48.158;11.816;2023-03-03T08:57:43;46.00;;;37.78;;
4634;SDS011;2330;48.158;11.816;2023-03-03T09:00:12;41.42;;;35.25;;
4634;SDS011;2330;48.158;11.816;2023-03-03T09:02:40;43.80;;;37.15;;
4634;SDS011;2330;48.158;11.816;2023-03-03T09:05:08;44.50;;;38.55;;
4634;SDS011;2330;48.158;11.816;2023-03-03T09:07:36;43.72;;;37.53;;
4634;SDS011;2330;48.158;11.816;2023-03-03T09:10:03;45.00;;;37.53;;
4634;SDS011;2330;48.158;11.816;2023-03-03T09:12:35;43.55;;;37.47;;
4634;SDS011;2330;48.158;11.816;2023-03-03T09:15:22;42.22;;;37.63;;
4634;SDS011;2330;48.158;11.816;2023-03-03T09:17:50;42.28;;;37.58;;
4634;SDS011;2330;48.158;11.816;2023-03-03T09:20:23;42.83;;;38.17;;
4634;SDS011;2330;48.158;11.816;2023-03-03T09:22:58;41.25;;;36.78;;
4634;SDS011;2330;48.158;11.816;2023-03-03T09:25:42;41.90;;;37.35;;
4634;SDS011;2330;48.158;11.816;2023-03-03T09:28:31;46.35;;;39.58;;
4634;SDS011;2330;48.158;11.816;2023-03-03T09:30:59;42.13;;;37.40;;
4634;SDS011;2330;48.158;11.816;2023-03-03T09:33:28;41.13;;;36.72;;
4634;SDS011;2330;48.158;11.816;2023-03-03T09:38:41;45.28;;;35.10;;
4634;SDS011;2330;48.158;11.816;2023-03-03T09:41:14;49.22;;;37.97;;
4634;SDS011;2330;48.158;11.816;2023-03-03T09:49:44;42.67;;;38.00;;
4634;SDS011;2330;48.158;11.816;2023-03-03T09:52:31;54.95;;;38.13;;
4634;SDS011;2330;48.158;11.816;2023-03-03T09:55:12;41.10;;;36.63;;
4634;SDS011;2330;48.158;11.816;2023-03-03T10:06:51;42.47;;;36.90;;
4634;SDS011;2330;48.158;11.816;2023-03-03T10:12:23;38.78;;;34.72;;
4634;SDS011;2330;48.158;11.816;2023-03-03T10:15:29;46.63;;;38.00;;
4634;SDS011;2330;48.158;11.816;2023-03-03T10:29:09;43.28;;;38.15;;
4634;SDS011;2330;48.158;11.816;2023-03-03T10:34:38;48.97;;;37.03;;
4634;SDS011;2330;48.158;11.816;2023-03-03T10:37:49;41.40;;;36.07;;
4634;SDS011;2330;48.158;11.816;2023-03-03T10:40:42;45.00;;;38.03;;
4634;SDS011;2330;48.158;11.816;2023-03-03T10:49:31;43.70;;;36.00;;
4634;SDS011;2330;48.158;11.816;2023-03-03T11:08:29;39.73;;;34.70;;
4634;SDS011;2330;48.158;11.816;2023-03-03T11:13:47;40.97;;;36.33;;
4634;SDS011;2330;48.158;11.816;2023-03-03T11:22:27;43.77;;;36.87;;
4634;SDS011;2330;48.158;11.816;2023-03-03T11:33:33;46.97;;;36.53;;
4634;SDS011;2330;48.158;11.816;2023-03-03T11:38:58;43.93;;;35.53;;
4634;SDS011;2330;48.158;11.816;2023-03-03T11:41:31;49.60;;;37.17;;
4634;SDS011;2330;48.158;11.816;2023-03-03T11:44:03;41.67;;;35.80;;
4634;SDS011;2330;48.158;11.816;2023-03-03T11:46:45;42.33;;;34.73;;
4634;SDS011;2330;48.158;11.816;2023-03-03T11:49:21;40.40;;;33.53;;
4634;SDS011;2330;48.158;11.816;2023-03-03T11:54:27;44.73;;;36.30;;
4634;SDS011;2330;48.158;11.816;2023-03-03T11:57:19;43.57;;;35.20;;
4634;SDS011;2330;48.158;11.816;2023-03-03T11:59:57;37.57;;;32.97;;
4634;SDS011;2330;48.158;11.816;2023-03-03T12:02:35;42.00;;;36.77;;
4634;SDS011;2330;48.158;11.816;2023-03-03T12:13:25;46.60;;;35.83;;
4634;SDS011;2330;48.158;11.816;2023-03-03T12:16:07;46.30;;;35.97;;
4634;SDS011;2330;48.158;11.816;2023-03-03T12:21:55;44.83;;;34.50;;
4634;SDS011;2330;48.158;11.816;2023-03-03T12:24:36;37.90;;;33.90;;
4634;SDS011;2330;48.158;11.816;2023-03-03T12:30:26;40.17;;;35.57;;
4634;SDS011;2330;48.158;11.816;2023-03-03T12:47:24;44.27;;;34.93;;
4634;SDS011;2330;48.158;11.816;2023-03-03T12:55:50;41.23;;;36.80;;
4634;SDS011;2330;48.158;11.816;2023-03-03T12:58:30;39.73;;;35.13;;
4634;SDS011;2330;48.158;11.816;2023-03-03T13:07:31;40.10;;;35.00;;
4634;SDS011;2330;48.158;11.816;2023-03-03T13:10:12;41.40;;;35.97;;
4634;SDS011;2330;48.158;11.816;2023-03-03T13:13:02;38.87;;;34.67;;
4634;SDS011;2330;48.158;11.816;2023-03-03T13:18:24;43.70;;;35.40;;
4634;SDS011;2330;48.158;11.816;2023-03-03T13:23:56;43.27;;;33.97;;
4634;SDS011;2330;48.158;11.816;2023-03-03T13:26:36;45.50;;;36.43;;
4634;SDS011;2330;48.158;11.816;2023-03-03T13:29:25;41.93;;;34.30;;
4634;SDS011;2330;48.158;11.816;2023-03-03T13:31:59;42.20;;;32.80;;
4634;SDS011;2330;48.158;11.816;2023-03-03T13:37:34;43.47;;;34.80;;
4634;SDS011;2330;48.158;11.816;2023-03-03T13:40:35;39.43;;;33.27;;
4634;SDS011;2330;48.158;11.816;2023-03-03T13:43:52;40.53;;;34.70;;
4634;SDS011;2330;48.158;11.816;2023-03-03T13:46:17;39.53;;;33.60;;
4634;SDS011;2330;48.158;11.816;2023-03-03T13:49:12;39.90;;;34.83;;
4634;SDS011;2330;48.158;11.816;2023-03-03T13:52:19;45.83;;;33.93;;
4634;SDS011;2330;48.158;11.816;2023-03-03T13:54:52;43.07;;;35.50;;
4634;SDS011;2330;48.158;11.816;2023-03-03T13:57:43;40.80;;;32.67;;
4634;SDS011;2330;48.158;11.816;2023-03-03T14:06:06;39.67;;;31.93;;
4634;SDS011;2330;48.158;11.816;2023-03-03T14:11:28;41.60;;;33.17;;
4634;SDS011;2330;48.158;11.816;2023-03-03T14:14:13;42.80;;;34.27;;
4634;SDS011;2330;48.158;11.816;2023-03-03T14:17:33;42.03;;;32.83;;
4634;SDS011;2330;48.158;11.816;2023-03-03T14:19:59;40.60;;;33.33;;
4634;SDS011;2330;48.158;11.816;2023-03-03T14:22:32;42.63;;;34.77;;
4634;SDS011;2330;48.158;11.816;2023-03-03T14:25:11;44.20;;;33.00;;
4634;SDS011;2330;48.158;11.816;2023-03-03T14:27:52;38.37;;;32.77;;
4634;SDS011;2330;48.158;11.816;2023-03-03T14:35:34;39.97;;;30.90;;
4634;SDS011;2330;48.158;11.816;2023-03-03T14:38:13;36.93;;;30.00;;
4634;SDS011;2330;48.158;11.816;2023-03-03T14:40:43;37.47;;;29.07;;
4634;SDS011;2330;48.158;11.816;2023-03-03T14:48:57;38.00;;;29.43;;
4634;SDS011;2330;48.158;11.816;2023-03-03T14:53:59;38.70;;;30.53;;
4634;SDS011;2330;48.158;11.816;2023-03-03T14:56:29;32.60;;;28.20;;
4634;SDS011;2330;48.158;11.816;2023-03-03T14:59:11;36.83;;;29.50;;
4634;SDS011;2330;48.158;11.816;2023-03-03T15:01:46;31.67;;;27.60;;
4634;SDS011;2330;48.158;11.816;2023-03-03T15:06:40;38.60;;;30.33;;
4634;SDS011;2330;48.158;11.816;2023-03-03T15:12:22;33.53;;;28.77;;
4634;SDS011;2330;48.158;11.816;2023-03-03T15:15:20;35.77;;;29.73;;
4634;SDS011;2330;48.158;11.816;2023-03-03T15:34:49;33.73;;;28.03;;
4634;SDS011;2330;48.158;11.816;2023-03-03T15:43:12;31.30;;;27.80;;
4634;SDS011;2330;48.158;11.816;2023-03-03T15:57:37;32.23;;;28.87;;
4634;SDS011;2330;48.158;11.816;2023-03-03T16:03:10;35.50;;;30.57;;
4634;SDS011;2330;48.158;11.816;2023-03-03T16:08:25;34.87;;;29.70;;
4634;SDS011;2330;48.158;11.816;2023-03-03T16:27:56;35.80;;;29.70;;
4634;SDS011;2330;48.158;11.816;2023-03-03T16:30:45;32.90;;;28.00;;
4634;SDS011;2330;48.158;11.816;2023-03-03T16:33:22;43.93;;;28.97;;
4634;SDS011;2330;48.158;11.816;2023-03-03T16:36:01;34.10;;;30.37;;
4634;SDS011;2330;48.158;11.816;2023-03-03T16:38:37;36.07;;;30.43;;
4634;SDS011;2330;48.158;11.816;2023-03-03T16:41:20;29.53;;;26.40;;
4634;SDS011;2330;48.158;11.816;2023-03-03T16:47:10;30.13;;;27.00;;
4634;SDS011;2330;48.158;11.816;2023-03-03T16:55:52;32.50;;;26.83;;
4634;SDS011;2330;48.158;11.816;2023-03-03T17:09:32;31.70;;;28.23;;
4634;SDS011;2330;48.158;11.816;2023-03-03T17:17:43;33.07;;;27.10;;
4634;SDS011;2330;48.158;11.816;2023-03-03T17:23:04;30.70;;;27.40;;
4634;SDS011;2330;48.158;11.816;2023-03-03T17:37:01;27.83;;;24.60;;
4634;SDS011;2330;48.158;11.816;2023-03-03T17:40:02;28.87;;;25.00;;
4634;SDS011;2330;48.158;11.816;2023-03-03T17:43:00;28.33;;;24.27;;
4634;SDS011;2330;48.158;11.816;2023-03-03T17:45:51;29.90;;;26.70;;
4634;SDS011;2330;48.158;11.816;2023-03-03T17:48:25;33.73;;;28.17;;
4634;SDS011;2330;48.158;11.816;2023-03-03T17:53:49;41.70;;;29.73;;
4634;SDS011;2330;48.158;11.816;2023-03-03T17:56:43;29.87;;;26.67;;
4634;SDS011;2330;48.158;11.816;2023-03-03T18:11:21;30.67;;;27.00;;
4634;SDS011;2330;48.158;11.816;2023-03-03T18:16:19;30.60;;;25.03;;
4634;SDS011;2330;48.158;11.816;2023-03-03T18:40:51;31.77;;;28.37;;
4634;SDS011;2330;48.158;11.816;2023-03-03T18:56:43;34.23;;;30.53;;
4634;SDS011;2330;48.158;11.816;2023-03-03T19:02:09;36.17;;;32.30;;
4634;SDS011;2330;48.158;11.816;2023-03-03T19:04:52;33.53;;;30.13;;
4634;SDS011;2330;48.158;11.816;2023-03-03T19:12:48;35.55;;;29.25;;
4634;SDS011;2330;48.158;11.816;2023-03-03T19:18:14;35.67;;;31.83;;
4634;SDS011;2330;48.158;11.816;2023-03-03T19:28:57;36.60;;;32.80;;
4634;SDS011;2330;48.158;11.816;2023-03-03T19:31:31;35.15;;;30.23;;
4634;SDS011;2330;48.158;11.816;2023-03-03T19:39:52;39.15;;;31.00;;
4634;SDS011;2330;48.158;11.816;2023-03-03T19:42:32;36.13;;;32.22;;
4634;SDS011;2330;48.158;11.816;2023-03-03T19:53:09;39.38;;;31.90;;
4634;SDS011;2330;48.158;11.816;2023-03-03T19:56:29;37.90;;;33.80;;
4634;SDS011;2330;48.158;11.816;2023-03-03T20:01:35;36.60;;;32.60;;
4634;SDS011;2330;48.158;11.816;2023-03-03T20:04:28;38.45;;;34.35;;
4634;SDS011;2330;48.158;11.816;2023-03-03T20:10:04;37.42;;;33.53;;
4634;SDS011;2330;48.158;11.816;2023-03-03T20:16:01;38.78;;;34.63;;
4634;SDS011;2330;48.158;11.816;2023-03-03T20:18:34;35.85;;;31.95;;
4634;SDS011;2330;48.158;11.816;2023-03-03T20:21:30;42.70;;;37.03;;
4634;SDS011;2330;48.158;11.816;2023-03-03T20:24:19;41.72;;;34.30;;
4634;SDS011;2330;48.158;11.816;2023-03-03T20:27:05;42.08;;;35.22;;
4634;SDS011;2330;48.158;11.816;2023-03-03T20:29:56;38.55;;;34.33;;
4634;SDS011;2330;48.158;11.816;2023-03-03T20:35:17;37.10;;;33.28;;
4634;SDS011;2330;48.158;11.816;2023-03-03T20:51:12;35.30;;;31.70;;
4634;SDS011;2330;48.158;11.816;2023-03-03T20:56:39;40.15;;;35.83;;
4634;SDS011;2330;48.158;11.816;2023-03-03T20:59:26;38.45;;;34.35;;
4634;SDS011;2330;48.158;11.816;2023-03-03T21:02:07;39.95;;;34.80;;
4634;SDS011;2330;48.158;11.816;2023-03-03T21:05:09;36.67;;;32.88;;
4634;SDS011;2330;48.158;11.816;2023-03-03T21:07:36;45.40;;;40.35;;
4634;SDS011;2330;48.158;11.816;2023-03-03T21:10:13;40.05;;;35.13;;
4634;SDS011;2330;48.158;11.816;2023-03-03T21:13:19;39.70;;;35.50;;
4634;SDS011;2330;48.158;11.816;2023-03-03T21:15:54;40.15;;;35.83;;
4634;SDS011;2330;48.158;11.816;2023-03-03T21:18:35;39.35;;;34.00;;
4634;SDS011;2330;48.158;11.816;2023-03-03T21:21:02;39.03;;;33.05;;
4634;SDS011;2330;48.158;11.816;2023-03-03T21:23:29;40.47;;;35.55;;
4634;SDS011;2330;48.158;11.816;2023-03-03T21:25:56;39.13;;;34.90;;
4634;SDS011;2330;48.158;11.816;2023-03-03T21:28:30;41.90;;;34.88;;
4634;SDS011;2330;48.158;11.816;2023-03-03T21:31:12;41.28;;;35.13;;
4634;SDS011;2330;48.158;11.816;2023-03-03T21:33:41;44.35;;;35.28;;
4634;SDS011;2330;48.158;11.816;2023-03-03T21:36:13;36.45;;;32.85;;
4634;SDS011;2330;48.158;11.816;2023-03-03T21:38:45;39.90;;;35.65;;
4634;SDS011;2330;48.158;11.816;2023-03-03T21:41:13;38.95;;;34.80;;